Time;durP1;ratioP1;P1;durP2;ratioP2;P2;SDS_P1;SDS_P2;PMS_P1;PMS_P2;Temp;Humidity;BMP_temperature;BMP_pressure;BME280_temperature;BME280_humidity;BME280_pressure;Samples;Min_cycle;Max_cycle;Signal;HPM_P1;HPM_P2
2023/09/12 00:00:46;;;;;;;4.32;3.30;;;;;;;-148.88;100.00;-17125.47;5012479;28;20029;-72
2023/09/12 00:03:11;;;;;;;5.07;3.30;;;;;;;-148.88;100.00;-17125.47;5012628;28;20109;-72
2023/09/12 00:05:37;;;;;;;4.65;2.85;;;;;;;-148.88;100.00;-17125.47;5012484;28;20112;-72
2023/09/12 00:08:03;;;;;;;3.88;2.58;;;;;;;-148.88;100.00;-17125.47;5011468;28;20018;-72
2023/09/12 00:10:29;;;;;;;5.47;3.25;;;;;;;-148.88;100.00;-17125.47;5012663;28;20054;-73
2023/09/12 00:12:55;;;;;;;3.63;2.80;;;;;;;-148.88;100.00;-17125.47;5012567;28;20034;-72
2023/09/12 00:15:20;;;;;;;4.15;2.60;;;;;;;-148.88;100.00;-17125.47;5011052;28;20018;-72
2023/09/12 00:17:46;;;;;;;4.00;2.60;;;;;;;-148.88;100.00;-17125.47;5012416;28;20402;-72
2023/09/12 00:20:11;;;;;;;3.83;2.75;;;;;;;-148.88;100.00;-17125.47;5012754;28;20084;-73
2023/09/12 00:22:37;;;;;;;6.68;2.80;;;;;;;-148.88;100.00;-17125.47;5012928;28;20105;-72
2023/09/12 00:25:03;;;;;;;4.72;2.90;;;;;;;-148.88;100.00;-17125.47;5012470;28;20041;-73
2023/09/12 00:27:28;;;;;;;4.68;2.65;;;;;;;-148.88;100.00;-17125.47;5012270;28;20101;-72
2023/09/12 00:29:54;;;;;;;3.60;2.50;;;;;;;-148.88;100.00;-17125.47;5012246;28;20118;-72
2023/09/12 00:32:19;;;;;;;4.82;3.00;;;;;;;-148.88;100.00;-17125.47;5012280;28;20021;-72
2023/09/12 00:34:44;;;;;;;4.13;3.00;;;;;;;-148.88;100.00;-17125.47;5012120;28;20030;-72
2023/09/12 00:37:11;;;;;;;5.13;3.20;;;;;;;-148.88;100.00;-17125.47;5012120;28;20018;-72
2023/09/12 00:39:37;;;;;;;4.45;3.03;;;;;;;-148.88;100.00;-17125.47;5012105;28;20022;-72
2023/09/12 00:42:02;;;;;;;4.30;3.00;;;;;;;-148.88;100.00;-17125.47;5012009;28;20068;-72
2023/09/12 00:44:28;;;;;;;4.32;2.97;;;;;;;-148.88;100.00;-17125.47;5011467;28;20026;-73
2023/09/12 00:46:55;;;;;;;4.65;3.28;;;;;;;-148.88;100.00;-17125.47;5010687;28;20082;-72
2023/09/12 00:49:22;;;;;;;5.05;3.42;;;;;;;-148.88;100.00;-17125.47;5012481;28;20111;-73
2023/09/12 00:51:48;;;;;;;5.35;3.63;;;;;;;-148.88;100.00;-17125.47;5011217;28;20444;-72
2023/09/12 00:54:14;;;;;;;4.63;3.70;;;;;;;-148.88;100.00;-17125.47;5012053;28;20102;-73
2023/09/12 00:56:39;;;;;;;7.68;4.47;;;;;;;-148.88;100.00;-17125.47;5014335;28;20445;-72
2023/09/12 00:59:05;;;;;;;9.18;5.13;;;;;;;-148.88;100.00;-17125.47;5016431;28;20030;-72
2023/09/12 01:01:32;;;;;;;10.25;7.55;;;;;;;-148.88;100.00;-17125.47;5016635;28;20096;-73
2023/09/12 01:03:58;;;;;;;11.55;9.70;;;;;;;-148.88;100.00;-17125.47;5015855;28;20098;-72
2023/09/12 01:06:27;;;;;;;13.48;10.55;;;;;;;-148.88;100.00;-17125.47;5015681;28;20113;-72
2023/09/12 01:08:53;;;;;;;19.00;12.23;;;;;;;-148.88;100.00;-17125.47;5014346;28;20104;-72
2023/09/12 01:11:19;;;;;;;20.73;12.48;;;;;;;-148.88;100.00;-17125.47;5014462;28;20137;-72
2023/09/12 01:13:45;;;;;;;17.65;12.88;;;;;;;-148.88;100.00;-17125.47;5015473;28;20422;-72
2023/09/12 01:16:10;;;;;;;19.35;13.73;;;;;;;-148.88;100.00;-17125.47;5014869;28;20026;-72
2023/09/12 01:18:36;;;;;;;19.80;14.57;;;;;;;-148.88;100.00;-17125.47;5014814;28;20064;-73
2023/09/12 01:21:25;;;;;;;24.55;17.27;;;;;;;-148.88;100.00;-17125.47;5015363;28;20030;-72
2023/09/12 01:24:13;;;;;;;25.55;18.83;;;;;;;-148.88;100.00;-17125.47;5015646;28;20481;-73
2023/09/12 01:26:55;;;;;;;23.77;19.90;;;;;;;-148.88;100.00;-17125.47;5015020;28;20044;-73
2023/09/12 01:29:22;;;;;;;28.05;20.52;;;;;;;-148.88;100.00;-17125.47;5015268;28;20349;-73
2023/09/12 01:31:49;;;;;;;27.42;21.63;;;;;;;-148.88;100.00;-17125.47;5015257;28;20021;-73
2023/09/12 01:34:14;;;;;;;25.23;20.92;;;;;;;-148.88;100.00;-17125.47;5015264;28;20446;-73
2023/09/12 01:36:40;;;;;;;28.70;24.25;;;;;;;-148.88;100.00;-17125.47;5014123;28;20022;-73
2023/09/12 01:39:05;;;;;;;29.02;25.35;;;;;;;-148.88;100.00;-17125.47;5015219;28;20034;-73
2023/09/12 01:41:34;;;;;;;38.25;28.60;;;;;;;-148.88;100.00;-17125.47;5013776;28;20480;-73
2023/09/12 01:44:01;;;;;;;30.42;25.08;;;;;;;-148.88;100.00;-17125.47;5014961;28;20060;-73
2023/09/12 01:46:27;;;;;;;36.45;29.50;;;;;;;-148.88;100.00;-17125.47;5014820;28;20034;-72
2023/09/12 01:48:55;;;;;;;39.53;29.33;;;;;;;-148.88;100.00;-17125.47;5014849;28;20084;-72
2023/09/12 01:51:22;;;;;;;35.17;27.17;;;;;;;-148.88;100.00;-17125.47;5014890;28;20030;-73
2023/09/12 01:53:49;;;;;;;35.80;28.80;;;;;;;-148.88;100.00;-17125.47;5014739;28;20345;-73
2023/09/12 01:56:15;;;;;;;34.20;28.42;;;;;;;-148.88;100.00;-17125.47;5014768;28;20049;-72
2023/09/12 01:58:40;;;;;;;38.25;29.98;;;;;;;-148.88;100.00;-17125.47;5014716;28;20022;-72
2023/09/12 02:01:06;;;;;;;37.65;30.00;;;;;;;-148.88;100.00;-17125.47;5013341;28;20045;-73
2023/09/12 02:03:31;;;;;;;37.28;27.10;;;;;;;-148.88;100.00;-17125.47;5014604;28;20037;-72
2023/09/12 02:05:57;;;;;;;33.22;27.13;;;;;;;-148.88;100.00;-17125.47;5013199;28;20052;-72
2023/09/12 02:08:22;;;;;;;37.03;28.23;;;;;;;-148.88;100.00;-17125.47;5014290;28;20030;-73
2023/09/12 02:10:47;;;;;;;38.10;29.80;;;;;;;-148.88;100.00;-17125.47;5014599;28;20109;-73
2023/09/12 02:13:13;;;;;;;37.50;30.17;;;;;;;-148.88;100.00;-17125.47;5013385;28;20026;-73
2023/09/12 02:15:38;;;;;;;36.17;28.45;;;;;;;-148.88;100.00;-17125.47;5014569;28;20060;-73
2023/09/12 02:18:04;;;;;;;37.38;29.75;;;;;;;-148.88;100.00;-17125.47;5014311;28;20121;-73
2023/09/12 02:20:29;;;;;;;35.00;29.52;;;;;;;-148.88;100.00;-17125.47;5012969;28;20025;-73
2023/09/12 02:22:55;;;;;;;36.40;29.45;;;;;;;-148.88;100.00;-17125.47;5012810;28;20120;-73
2023/09/12 02:25:20;;;;;;;34.72;28.52;;;;;;;-148.88;100.00;-17125.47;5014420;28;20491;-73
2023/09/12 02:27:48;;;;;;;42.45;31.88;;;;;;;-148.88;100.00;-17125.47;5014141;28;20061;-73
2023/09/12 02:30:13;;;;;;;44.72;34.17;;;;;;;-148.88;100.00;-17125.47;5012906;28;20018;-72
2023/09/12 02:32:41;;;;;;;43.50;35.03;;;;;;;-148.88;100.00;-17125.47;5014358;28;20029;-73
2023/09/12 02:35:07;;;;;;;39.20;30.70;;;;;;;-148.88;100.00;-17125.47;5013908;28;20037;-72
2023/09/12 02:37:32;;;;;;;44.10;33.03;;;;;;;-148.88;100.00;-17125.47;5013847;28;20030;-73
2023/09/12 02:39:58;;;;;;;41.67;32.65;;;;;;;-148.88;100.00;-17125.47;5012632;28;20030;-72
2023/09/12 02:42:24;;;;;;;42.35;34.53;;;;;;;-148.88;100.00;-17125.47;5014252;28;20021;-72
2023/09/12 02:44:49;;;;;;;43.40;33.58;;;;;;;-148.88;100.00;-17125.47;5013862;28;20101;-73
2023/09/12 02:47:15;;;;;;;39.60;31.48;;;;;;;-148.88;100.00;-17125.47;5013823;28;20074;-73
2023/09/12 02:49:40;;;;;;;43.85;33.08;;;;;;;-148.88;100.00;-17125.47;5012548;28;20049;-73
2023/09/12 02:52:05;;;;;;;40.58;32.40;;;;;;;-148.88;100.00;-17125.47;5013852;28;20104;-74
2023/09/12 02:54:31;;;;;;;42.72;32.63;;;;;;;-148.88;100.00;-17125.47;5012497;28;20026;-72
2023/09/12 02:56:56;;;;;;;44.05;31.73;;;;;;;-148.88;100.00;-17125.47;5013834;28;20030;-72
2023/09/12 02:59:22;;;;;;;39.25;30.35;;;;;;;-148.88;100.00;-17125.47;5013849;28;20489;-72
2023/09/12 03:01:47;;;;;;;37.25;28.73;;;;;;;-148.88;100.00;-17125.47;5013786;28;20022;-72
2023/09/12 03:04:12;;;;;;;34.78;29.17;;;;;;;-148.88;100.00;-17125.47;5013566;28;20033;-72
2023/09/12 03:06:38;;;;;;;39.67;31.52;;;;;;;-148.88;100.00;-17125.47;5013739;28;20026;-72
2023/09/12 03:09:03;;;;;;;41.30;32.35;;;;;;;-148.88;100.00;-17125.47;5013600;28;20085;-72
2023/09/12 03:11:29;;;;;;;44.38;33.33;;;;;;;-148.88;100.00;-17125.47;5013730;28;20018;-72
2023/09/12 03:13:55;;;;;;;46.67;35.47;;;;;;;-148.88;100.00;-17125.47;5013431;28;20030;-72
2023/09/12 03:16:21;;;;;;;49.70;36.25;;;;;;;-148.88;100.00;-17125.47;5012559;28;20507;-72
2023/09/12 03:18:46;;;;;;;50.53;35.88;;;;;;;-148.88;100.00;-17125.47;5012843;28;20026;-73
2023/09/12 03:21:11;;;;;;;47.53;35.92;;;;;;;-148.88;100.00;-17125.47;5013578;28;20026;-72
2023/09/12 03:23:37;;;;;;;42.88;34.67;;;;;;;-148.88;100.00;-17125.47;5013434;28;20021;-73
2023/09/12 03:26:04;;;;;;;45.00;35.05;;;;;;;-148.88;100.00;-17125.47;5013431;28;20029;-72
2023/09/12 03:28:29;;;;;;;42.78;33.97;;;;;;;-148.88;100.00;-17125.47;5014097;28;20026;-73
2023/09/12 03:31:07;;;;;;;52.53;35.00;;;;;;;-148.88;100.00;-17125.47;5013373;28;20048;-73
2023/09/12 03:33:33;;;;;;;53.92;37.80;;;;;;;-148.88;100.00;-17125.47;5013520;28;20117;-73
2023/09/12 03:35:58;;;;;;;50.42;36.40;;;;;;;-148.88;100.00;-17125.47;5013213;28;20202;-73
2023/09/12 03:38:23;;;;;;;26.95;20.40;;;;;;;-148.88;100.00;-17125.47;5013155;28;20026;-72
2023/09/12 03:40:49;;;;;;;35.90;28.65;;;;;;;-148.88;100.00;-17125.47;5013197;28;20028;-72
2023/09/12 03:43:14;;;;;;;38.53;29.38;;;;;;;-148.88;100.00;-17125.47;5013625;28;20029;-73
2023/09/12 03:45:39;;;;;;;19.85;14.32;;;;;;;-148.88;100.00;-17125.47;5013002;28;20025;-73
2023/09/12 03:48:05;;;;;;;27.23;22.63;;;;;;;-148.88;100.00;-17125.47;5013241;28;20045;-72
2023/09/12 03:50:30;;;;;;;24.40;17.65;;;;;;;-148.88;100.00;-17125.47;5012971;28;20025;-72
2023/09/12 03:52:57;;;;;;;18.73;14.80;;;;;;;-148.88;100.00;-17125.47;5012988;28;20026;-72
2023/09/12 03:55:22;;;;;;;17.63;14.43;;;;;;;-148.88;100.00;-17125.47;5013337;28;20033;-72
2023/09/12 03:57:48;;;;;;;19.17;15.13;;;;;;;-148.88;100.00;-17125.47;5013174;28;20545;-72
2023/09/12 04:00:14;;;;;;;22.00;14.77;;;;;;;-148.88;100.00;-17125.47;5013202;28;20443;-73
2023/09/12 04:02:39;;;;;;;24.90;15.98;;;;;;;-148.88;100.00;-17125.47;5013367;28;20022;-73
2023/09/12 04:05:04;;;;;;;18.05;13.75;;;;;;;-148.88;100.00;-17125.47;5013388;28;20030;-73
2023/09/12 04:10:58;;;;;;;22.92;15.40;;;;;;;-148.88;100.00;-17125.47;5013103;28;20136;-72
2023/09/12 04:13:24;;;;;;;20.88;13.65;;;;;;;-148.88;100.00;-17125.47;5011366;28;20022;-72
2023/09/12 04:15:49;;;;;;;14.75;12.15;;;;;;;-148.88;100.00;-17125.47;5012832;28;20022;-72
2023/09/12 04:18:15;;;;;;;20.42;13.35;;;;;;;-148.88;100.00;-17125.47;5012879;28;20026;-72
2023/09/12 04:20:40;;;;;;;19.67;15.13;;;;;;;-148.88;100.00;-17125.47;5012718;28;20026;-72
2023/09/12 04:23:06;;;;;;;19.17;14.95;;;;;;;-148.88;100.00;-17125.47;5012944;28;20024;-72
2023/09/12 04:25:31;;;;;;;23.00;17.38;;;;;;;-148.88;100.00;-17125.47;5011352;28;20416;-72
2023/09/12 04:27:57;;;;;;;25.13;16.80;;;;;;;-148.88;100.00;-17125.47;5011162;28;20057;-72
2023/09/12 04:30:22;;;;;;;22.88;16.05;;;;;;;-148.88;100.00;-17125.47;5014268;28;20105;-71
2023/09/12 04:32:47;;;;;;;18.48;14.98;;;;;;;-148.88;100.00;-17125.47;5016802;28;20026;-72
2023/09/12 04:35:13;;;;;;;27.00;15.60;;;;;;;-148.88;100.00;-17125.47;5016747;28;20076;-72
2023/09/12 04:37:38;;;;;;;23.80;16.00;;;;;;;-148.88;100.00;-17125.47;5016640;28;20064;-72
2023/09/12 04:40:06;;;;;;;23.27;14.23;;;;;;;-148.88;100.00;-17125.47;5017059;28;20414;-72
2023/09/12 04:42:31;;;;;;;13.93;9.02;;;;;;;-148.88;100.00;-17125.47;5017227;28;20513;-73
2023/09/12 04:44:57;;;;;;;14.13;8.88;;;;;;;-148.88;100.00;-17125.47;5016624;28;20022;-73
2023/09/12 04:51:24;;;;;;;12.20;9.15;;;;;;;-148.88;100.00;-17125.47;5009597;28;20065;-90
2023/09/12 04:54:25;;;;;;;12.45;9.43;;;;;;;-148.88;100.00;-17125.47;5017189;28;20045;-89
2023/09/12 04:56:51;;;;;;;14.30;9.35;;;;;;;-148.88;100.00;-17125.47;5009159;22;20416;-73
2023/09/12 04:59:16;;;;;;;13.38;9.40;;;;;;;-148.88;100.00;-17125.47;5057439;22;20017;-80
2023/09/12 05:01:41;;;;;;;14.15;9.32;;;;;;;-148.88;100.00;-17125.47;5014588;28;20105;-82
2023/09/12 05:04:07;;;;;;;12.02;8.35;;;;;;;-148.88;100.00;-17125.47;5015567;28;20029;-84
2023/09/12 05:06:32;;;;;;;12.45;8.52;;;;;;;-148.88;100.00;-17125.47;4997901;28;20034;-83
2023/09/12 05:08:58;;;;;;;11.63;8.55;;;;;;;-148.88;100.00;-17125.47;4998985;28;20045;-85
2023/09/12 05:11:24;;;;;;;10.52;8.30;;;;;;;-148.88;100.00;-17125.47;5012869;28;20030;-83
2023/09/12 05:13:50;;;;;;;9.25;8.10;;;;;;;-148.88;100.00;-17125.47;4998312;28;20366;-84
2023/09/12 05:16:15;;;;;;;12.13;8.40;;;;;;;-148.88;100.00;-17125.47;4996889;28;20026;-83
2023/09/12 05:18:41;;;;;;;10.98;7.75;;;;;;;-148.88;100.00;-17125.47;4997962;28;20117;-83
2023/09/12 05:21:06;;;;;;;9.68;7.20;;;;;;;-148.88;100.00;-17125.47;4997870;28;20022;-84
2023/09/12 05:23:32;;;;;;;13.15;7.70;;;;;;;-148.88;100.00;-17125.47;4998633;28;20045;-80
2023/09/12 05:25:57;;;;;;;8.30;6.60;;;;;;;-148.88;100.00;-17125.47;4999511;28;20409;-85
2023/09/12 05:28:23;;;;;;;10.27;7.00;;;;;;;-148.88;100.00;-17125.47;4998824;28;20042;-82
2023/09/12 05:30:48;;;;;;;9.55;7.68;;;;;;;-148.88;100.00;-17125.47;4998532;28;20036;-85
2023/09/12 05:33:16;;;;;;;11.68;7.30;;;;;;;-148.88;100.00;-17125.47;4998356;28;20030;-85
2023/09/12 05:35:47;;;;;;;10.32;7.57;;;;;;;-148.88;100.00;-17125.47;4997618;28;20434;-83
2023/09/12 05:38:13;;;;;;;11.60;7.90;;;;;;;-148.88;100.00;-17125.47;5000130;28;20034;-84
2023/09/12 05:40:38;;;;;;;14.63;7.95;;;;;;;-148.88;100.00;-17125.47;4998665;28;20041;-83
2023/09/12 05:43:04;;;;;;;9.88;7.53;;;;;;;-148.88;100.00;-17125.47;4999434;28;20048;-83
2023/09/12 05:45:30;;;;;;;10.38;7.50;;;;;;;-148.88;100.00;-17125.47;4999100;28;20036;-84
2023/09/12 05:48:03;;;;;;;11.13;8.48;;;;;;;-148.88;100.00;-17125.47;4998915;28;20030;-83
2023/09/12 05:50:28;;;;;;;12.27;8.45;;;;;;;-148.88;100.00;-17125.47;5019050;23;20054;-76
2023/09/12 05:52:53;;;;;;;11.65;8.27;;;;;;;-148.88;100.00;-17125.47;5029600;28;20101;-77
2023/09/12 05:55:21;;;;;;;13.52;8.73;;;;;;;-148.88;100.00;-17125.47;5015625;28;20499;-81
2023/09/12 05:57:52;;;;;;;14.20;9.95;;;;;;;-148.88;100.00;-17125.47;5015344;28;20040;-77
2023/09/12 06:00:17;;;;;;;12.60;9.10;;;;;;;-148.88;100.00;-17125.47;5015630;28;20026;-77
2023/09/12 06:02:43;;;;;;;12.23;9.65;;;;;;;-148.88;100.00;-17125.47;5015948;28;20029;-78
2023/09/12 06:05:09;;;;;;;14.85;10.35;;;;;;;-148.88;100.00;-17125.47;5015118;28;20101;-77
2023/09/12 06:07:35;;;;;;;13.93;9.77;;;;;;;-148.88;100.00;-17125.47;5013424;28;20026;-77
2023/09/12 06:10:01;;;;;;;13.98;10.18;;;;;;;-148.88;100.00;-17125.47;5013551;28;20037;-77
2023/09/12 06:12:26;;;;;;;14.57;9.85;;;;;;;-148.88;100.00;-17125.47;5014419;28;20117;-76
2023/09/12 06:14:54;;;;;;;12.45;9.32;;;;;;;-148.88;100.00;-17125.47;5014072;28;20473;-77
2023/09/12 06:17:19;;;;;;;13.45;9.75;;;;;;;-148.88;100.00;-17125.47;5012718;28;20049;-76
2023/09/12 06:19:44;;;;;;;14.00;9.75;;;;;;;-148.88;100.00;-17125.47;5014171;28;20030;-76
2023/09/12 06:22:10;;;;;;;12.93;10.02;;;;;;;-148.88;100.00;-17125.47;5013910;28;20444;-76
2023/09/12 06:24:35;;;;;;;13.52;9.77;;;;;;;-148.88;100.00;-17125.47;5012661;28;20018;-75
2023/09/12 06:27:00;;;;;;;12.75;9.63;;;;;;;-148.88;100.00;-17125.47;5012565;28;20145;-76
2023/09/12 06:29:26;;;;;;;14.30;10.27;;;;;;;-148.88;100.00;-17125.47;5013931;28;20444;-76
2023/09/12 06:31:51;;;;;;;13.35;10.88;;;;;;;-148.88;100.00;-17125.47;5014380;28;20084;-76
2023/09/12 06:34:16;;;;;;;14.77;10.45;;;;;;;-148.88;100.00;-17125.47;5013688;28;20135;-76
2023/09/12 06:36:44;;;;;;;13.65;10.48;;;;;;;-148.88;100.00;-17125.47;5013870;28;20444;-76
2023/09/12 06:39:10;;;;;;;13.63;10.57;;;;;;;-148.88;100.00;-17125.47;5013742;28;20028;-76
2023/09/12 06:41:38;;;;;;;17.25;11.80;;;;;;;-148.88;100.00;-17125.47;5013703;28;20395;-76
2023/09/12 06:44:05;;;;;;;17.67;12.57;;;;;;;-148.88;100.00;-17125.47;5013656;28;20061;-76
2023/09/12 06:46:30;;;;;;;15.30;12.60;;;;;;;-148.88;100.00;-17125.47;5012281;28;20022;-76
2023/09/12 06:48:56;;;;;;;20.10;13.55;;;;;;;-148.88;100.00;-17125.47;5013507;28;20033;-76
2023/09/12 06:51:25;;;;;;;16.65;12.63;;;;;;;-148.88;100.00;-17125.47;5013302;28;20053;-76
2023/09/12 06:53:51;;;;;;;16.33;12.70;;;;;;;-148.88;100.00;-17125.47;5012206;28;20437;-77
2023/09/12 06:56:16;;;;;;;19.63;13.63;;;;;;;-148.88;100.00;-17125.47;5013247;28;20500;-77
2023/09/12 06:58:42;;;;;;;14.25;12.18;;;;;;;-148.88;100.00;-17125.47;5013534;28;20037;-76
2023/09/12 07:01:07;;;;;;;15.85;12.60;;;;;;;-148.88;100.00;-17125.47;5013283;28;20504;-76
2023/09/12 07:03:34;;;;;;;16.15;12.32;;;;;;;-148.88;100.00;-17125.47;5013253;28;20079;-76
2023/09/12 07:05:59;;;;;;;16.27;12.55;;;;;;;-148.88;100.00;-17125.47;5013112;28;20119;-75
2023/09/12 07:08:25;;;;;;;15.60;12.10;;;;;;;-148.88;100.00;-17125.47;5012970;28;20461;-75
2023/09/12 07:10:51;;;;;;;14.35;11.52;;;;;;;-148.88;100.00;-17125.47;5013028;28;20476;-75
2023/09/12 07:13:16;;;;;;;18.90;12.68;;;;;;;-148.88;100.00;-17125.47;5013073;28;20029;-76
2023/09/12 07:15:41;;;;;;;16.23;12.60;;;;;;;-148.88;100.00;-17125.47;5012131;28;20377;-75
2023/09/12 07:18:07;;;;;;;16.50;12.30;;;;;;;-148.88;100.00;-17125.47;5010379;28;20519;-75
2023/09/12 07:20:34;;;;;;;16.20;11.80;;;;;;;-148.88;100.00;-17125.47;5011464;28;20026;-75
2023/09/12 07:23:00;;;;;;;14.88;11.82;;;;;;;-148.88;100.00;-17125.47;5012337;28;20046;-76
2023/09/12 07:25:25;;;;;;;16.10;11.52;;;;;;;-148.88;100.00;-17125.47;5012885;28;20101;-76
2023/09/12 07:27:51;;;;;;;16.33;12.20;;;;;;;-148.88;100.00;-17125.47;5012609;28;20021;-75
2023/09/12 07:30:16;;;;;;;14.75;11.77;;;;;;;-148.88;100.00;-17125.47;5012618;28;20369;-75
2023/09/12 07:32:42;;;;;;;15.27;11.40;;;;;;;-148.88;100.00;-17125.47;5011448;28;20022;-76
2023/09/12 07:35:07;;;;;;;15.80;11.73;;;;;;;-148.88;100.00;-17125.47;5012388;28;20472;-76
2023/09/12 07:37:33;;;;;;;15.00;11.35;;;;;;;-148.88;100.00;-17125.47;5012630;28;20045;-76
2023/09/12 07:39:58;;;;;;;16.13;11.15;;;;;;;-148.88;100.00;-17125.47;5012689;28;20037;-77
2023/09/12 07:42:24;;;;;;;14.35;11.95;;;;;;;-148.88;100.00;-17125.47;5013217;28;20049;-78
2023/09/12 07:44:49;;;;;;;15.15;12.52;;;;;;;-148.88;100.00;-17125.47;5012981;28;20045;-77
2023/09/12 07:47:15;;;;;;;17.75;12.48;;;;;;;-148.88;100.00;-17125.47;5012790;28;20373;-77
2023/09/12 07:49:40;;;;;;;16.25;14.13;;;;;;;-148.88;100.00;-17125.47;5011121;28;20072;-77
2023/09/12 07:52:06;;;;;;;17.35;13.07;;;;;;;-148.88;100.00;-17125.47;5012918;28;20460;-76
2023/09/12 07:54:31;;;;;;;15.73;13.13;;;;;;;-148.88;100.00;-17125.47;5012515;28;20567;-75
2023/09/12 07:56:57;;;;;;;15.40;12.38;;;;;;;-148.88;100.00;-17125.47;5012357;28;20101;-77
2023/09/12 07:59:22;;;;;;;16.92;13.23;;;;;;;-148.88;100.00;-17125.47;5012850;28;20484;-77
2023/09/12 08:01:48;;;;;;;17.20;13.13;;;;;;;-148.88;100.00;-17125.47;5013084;28;20030;-77
2023/09/12 08:04:14;;;;;;;17.83;13.23;;;;;;;-148.88;100.00;-17125.47;5010700;28;20080;-77
2023/09/12 08:06:42;;;;;;;17.08;13.60;;;;;;;-148.88;100.00;-17125.47;5011966;28;20119;-77
2023/09/12 08:09:08;;;;;;;19.75;14.00;;;;;;;-148.88;100.00;-17125.47;5010673;28;20022;-77
2023/09/12 08:11:33;;;;;;;18.52;13.55;;;;;;;-148.88;100.00;-17125.47;5012149;28;20030;-77
2023/09/12 08:13:58;;;;;;;17.95;13.85;;;;;;;-148.88;100.00;-17125.47;5012048;28;20021;-77
2023/09/12 08:16:25;;;;;;;17.38;13.75;;;;;;;-148.88;100.00;-17125.47;5012517;28;20101;-77
2023/09/12 08:18:50;;;;;;;17.42;13.65;;;;;;;-148.88;100.00;-17125.47;5010731;28;20551;-77
2023/09/12 08:21:16;;;;;;;17.23;13.77;;;;;;;-148.88;100.00;-17125.47;5011991;28;20033;-77
2023/09/12 08:23:41;;;;;;;18.48;13.02;;;;;;;-148.88;100.00;-17125.47;5010831;28;20022;-77
2023/09/12 08:26:07;;;;;;;17.88;13.90;;;;;;;-148.88;100.00;-17125.47;5012390;28;20025;-77
2023/09/12 08:28:32;;;;;;;17.30;13.35;;;;;;;-148.88;100.00;-17125.47;5012061;28;20030;-77
2023/09/12 08:30:57;;;;;;;16.77;13.60;;;;;;;-148.88;100.00;-17125.47;5012065;28;20022;-77
2023/09/12 08:33:23;;;;;;;17.98;13.75;;;;;;;-148.88;100.00;-17125.47;5012236;28;20025;-77
2023/09/12 08:35:50;;;;;;;20.05;13.73;;;;;;;-148.88;100.00;-17125.47;5014037;28;20481;-77
2023/09/12 08:38:15;;;;;;;15.45;12.48;;;;;;;-148.88;100.00;-17125.47;5011961;28;20053;-77
2023/09/12 08:40:47;;;;;;;15.02;12.55;;;;;;;-148.88;100.00;-17125.47;5011965;28;20436;-77
2023/09/12 08:43:12;;;;;;;15.90;12.18;;;;;;;-148.88;100.00;-17125.47;5012147;28;20481;-77
2023/09/12 08:45:38;;;;;;;14.35;11.30;;;;;;;-148.88;100.00;-17125.47;5011814;28;20084;-77
2023/09/12 08:48:05;;;;;;;14.23;11.68;;;;;;;-148.88;100.00;-17125.47;5011825;28;20097;-77
2023/09/12 08:50:32;;;;;;;14.27;11.13;;;;;;;-148.88;100.00;-17125.47;5011614;28;20062;-77
2023/09/12 08:52:58;;;;;;;14.30;11.57;;;;;;;-148.88;100.00;-17125.47;5011599;28;20029;-77
2023/09/12 08:55:23;;;;;;;13.55;10.88;;;;;;;-148.88;100.00;-17125.47;5011495;28;20113;-77
2023/09/12 08:57:51;;;;;;;14.02;11.27;;;;;;;-148.88;100.00;-17125.47;5011788;28;20026;-77
2023/09/12 09:00:17;;;;;;;15.13;11.23;;;;;;;-148.88;100.00;-17125.47;5011825;28;20080;-77
2023/09/12 09:02:43;;;;;;;14.90;10.85;;;;;;;-148.88;100.00;-17125.47;5011456;28;20503;-77
2023/09/12 09:05:10;;;;;;;19.45;11.05;;;;;;;-148.88;100.00;-17125.47;5010254;28;20056;-77
2023/09/12 09:07:41;;;;;;;15.65;11.98;;;;;;;-148.88;100.00;-17125.47;5011545;28;20037;-77
2023/09/12 09:10:09;;;;;;;15.75;12.38;;;;;;;-148.88;100.00;-17125.47;5010454;28;20492;-77
2023/09/12 09:12:36;;;;;;;16.75;13.10;;;;;;;-148.88;100.00;-17125.47;5009995;28;20064;-77
2023/09/12 09:15:25;;;;;;;18.45;12.88;;;;;;;-148.88;100.00;-17125.47;5010288;28;20041;-77
2023/09/12 09:17:57;;;;;;;15.93;12.07;;;;;;;-148.88;100.00;-17125.47;5012325;28;20029;-77
2023/09/12 09:20:37;;;;;;;15.93;12.18;;;;;;;-148.88;100.00;-17125.47;5013603;28;20092;-77
2023/09/12 09:23:10;;;;;;;15.85;12.02;;;;;;;-148.88;100.00;-17125.47;5013854;28;20064;-77
2023/09/12 09:25:39;;;;;;;19.33;12.25;;;;;;;-148.88;100.00;-17125.47;5014992;28;20109;-77
2023/09/12 09:28:15;;;;;;;15.88;12.60;;;;;;;-148.88;100.00;-17125.47;5014788;28;20029;-77
2023/09/12 09:30:58;;;;;;;15.40;12.32;;;;;;;-148.88;100.00;-17125.47;5014828;28;20026;-77
2023/09/12 09:33:24;;;;;;;18.67;13.38;;;;;;;-148.88;100.00;-17125.47;5013485;28;20054;-77
2023/09/12 09:35:51;;;;;;;14.70;11.52;;;;;;;-148.88;100.00;-17125.47;5014803;28;20066;-77
2023/09/12 09:38:20;;;;;;;13.38;11.07;;;;;;;-148.88;100.00;-17125.47;5014681;28;20076;-77
2023/09/12 09:40:46;;;;;;;15.05;11.02;;;;;;;-148.88;100.00;-17125.47;5014752;28;20038;-77
2023/09/12 09:43:13;;;;;;;14.65;11.48;;;;;;;-148.88;100.00;-17125.47;5014567;28;20037;-77
2023/09/12 09:45:46;;;;;;;15.15;11.75;;;;;;;-148.88;100.00;-17125.47;5014583;28;20097;-77
2023/09/12 09:48:21;;;;;;;12.13;10.67;;;;;;;-148.88;100.00;-17125.47;5014450;28;20475;-77
2023/09/12 09:50:47;;;;;;;15.27;11.40;;;;;;;-148.88;100.00;-17125.47;5014450;28;20033;-77
2023/09/12 09:53:13;;;;;;;16.63;11.27;;;;;;;-148.88;100.00;-17125.47;5014469;28;20106;-77
2023/09/12 09:55:38;;;;;;;14.40;11.45;;;;;;;-148.88;100.00;-17125.47;5014394;28;20113;-77
2023/09/12 09:58:05;;;;;;;14.23;11.25;;;;;;;-148.88;100.00;-17125.47;5013083;28;20048;-77
2023/09/12 10:00:33;;;;;;;12.07;10.00;;;;;;;-148.88;100.00;-17125.47;5014513;28;20449;-77
2023/09/12 10:02:59;;;;;;;14.23;10.05;;;;;;;-148.88;100.00;-17125.47;5014287;28;20025;-77
2023/09/12 10:05:28;;;;;;;14.20;10.90;;;;;;;-148.88;100.00;-17125.47;5014282;28;20030;-77
2023/09/12 10:07:56;;;;;;;15.48;10.13;;;;;;;-148.88;100.00;-17125.47;5014229;28;20026;-77
2023/09/12 10:10:24;;;;;;;13.88;10.60;;;;;;;-148.88;100.00;-17125.47;5014267;28;20492;-77
2023/09/12 10:12:52;;;;;;;13.52;9.68;;;;;;;-148.88;100.00;-17125.47;5014423;28;20053;-77
2023/09/12 10:15:22;;;;;;;15.85;11.30;;;;;;;-148.88;100.00;-17125.47;5012768;28;20040;-77
2023/09/12 10:17:59;;;;;;;14.50;10.90;;;;;;;-148.88;100.00;-17125.47;5012989;28;20547;-78
2023/09/12 10:20:33;;;;;;;14.63;11.13;;;;;;;-148.88;100.00;-17125.47;5014816;28;20045;-77
2023/09/12 10:23:30;;;;;;;14.88;11.50;;;;;;;-148.88;100.00;-17125.47;5017104;28;20025;-78
2023/09/12 10:25:57;;;;;;;15.05;11.77;;;;;;;-148.88;100.00;-17125.47;5011111;28;20034;-78
2023/09/12 10:28:23;;;;;;;16.70;11.60;;;;;;;-148.88;100.00;-17125.47;5013112;28;20025;-78
2023/09/12 10:30:49;;;;;;;17.00;12.30;;;;;;;-148.88;100.00;-17125.47;5014831;28;20041;-77
2023/09/12 10:33:15;;;;;;;15.73;11.98;;;;;;;-148.88;100.00;-17125.47;5014466;28;20022;-77
2023/09/12 10:35:42;;;;;;;15.00;11.13;;;;;;;-148.88;100.00;-17125.47;5013700;28;20525;-77
2023/09/12 10:38:08;;;;;;;15.77;12.48;;;;;;;-148.88;100.00;-17125.47;5012291;28;20021;-77
2023/09/12 10:40:36;;;;;;;18.33;12.77;;;;;;;-148.88;100.00;-17125.47;5013753;28;20071;-77
2023/09/12 10:43:05;;;;;;;17.17;12.50;;;;;;;-148.88;100.00;-17125.47;5013567;28;20022;-77
2023/09/12 10:45:32;;;;;;;15.20;11.65;;;;;;;-148.88;100.00;-17125.47;5013777;28;20488;-77
2023/09/12 10:47:58;;;;;;;17.10;12.48;;;;;;;-148.88;100.00;-17125.47;5012102;28;20029;-77
2023/09/12 10:50:24;;;;;;;15.02;12.73;;;;;;;-148.88;100.00;-17125.47;5012142;28;20099;-77
2023/09/12 10:52:51;;;;;;;22.33;13.40;;;;;;;-148.88;100.00;-17125.47;5013387;28;20034;-77
2023/09/12 10:55:20;;;;;;;17.33;13.10;;;;;;;-148.88;100.00;-17125.47;5011888;28;20056;-77